createdAt,value
2018-03-08T00:01:11.238Z,8.69
2018-03-08T00:03:45.520Z,8.59
2018-03-08T00:06:19.133Z,8.51
2018-03-08T00:08:50.963Z,8.46
2018-03-08T00:11:22.957Z,8.46
2018-03-08T00:13:54.633Z,8.38
2018-03-08T00:16:27.038Z,8.46
2018-03-08T00:18:59.363Z,8.52
2018-03-08T00:21:31.462Z,8.50
2018-03-08T00:24:02.870Z,8.60
2018-03-08T00:26:35.044Z,8.70
2018-03-08T00:29:07.194Z,8.68
2018-03-08T00:31:38.768Z,8.63
2018-03-08T00:34:10.238Z,8.65
2018-03-08T00:36:42.068Z,8.61
2018-03-08T00:39:13.474Z,8.65
2018-03-08T00:41:49.022Z,8.66
2018-03-08T00:44:20.872Z,8.66
2018-03-08T00:46:54.424Z,8.66
2018-03-08T00:49:26.134Z,8.68
2018-03-08T00:51:57.373Z,8.68
2018-03-08T00:54:29.218Z,8.79
2018-03-08T00:57:01.281Z,8.75
2018-03-08T00:59:34.516Z,8.64
2018-03-08T01:02:07.181Z,8.67
2018-03-08T01:04:38.505Z,8.77
2018-03-08T01:07:10.951Z,8.79
2018-03-08T01:09:43.317Z,8.70
2018-03-08T01:12:15.141Z,8.60
2018-03-08T01:14:47.314Z,8.61
2018-03-08T01:17:26.411Z,8.71
2018-03-08T01:19:58.019Z,8.80
2018-03-08T01:22:29.735Z,8.75
2018-03-08T01:25:02.454Z,8.68
2018-03-08T01:27:34.799Z,8.68
2018-03-08T01:30:08.559Z,8.63
2018-03-08T01:32:41.408Z,8.67
2018-03-08T01:35:13.389Z,8.52
2018-03-08T01:37:47.383Z,8.48
2018-03-08T01:40:18.749Z,8.65
2018-03-08T01:42:52.237Z,8.65
2018-03-08T01:45:23.758Z,8.57
2018-03-08T01:47:55.499Z,8.54
2018-03-08T01:50:28.830Z,8.52
2018-03-08T01:53:03.094Z,8.61
2018-03-08T01:55:34.465Z,8.54
2018-03-08T01:58:06.772Z,8.51
2018-03-08T02:00:38.233Z,8.43
2018-03-08T02:03:09.559Z,8.46
2018-03-08T02:05:44.096Z,8.41
2018-03-08T02:08:16.791Z,8.20
2018-03-08T02:10:50.678Z,8.38
2018-03-08T02:13:24.474Z,8.47
2018-03-08T02:16:07.146Z,8.43
2018-03-08T02:18:38.885Z,8.44
2018-03-08T02:21:10.193Z,8.31
2018-03-08T02:23:41.931Z,8.21
2018-03-08T02:26:13.810Z,8.29
2018-03-08T02:28:46.144Z,8.30
2018-03-08T02:31:17.237Z,8.37
2018-03-08T02:33:59.320Z,8.35
2018-03-08T02:36:30.409Z,8.15
2018-03-08T02:39:02.119Z,8.34
2018-03-08T02:41:34.723Z,8.25
2018-03-08T02:44:05.742Z,8.34
2018-03-08T02:46:36.975Z,8.37
2018-03-08T02:49:08.520Z,8.23
2018-03-08T02:51:39.480Z,8.20
2018-03-08T02:54:11.004Z,8.11
2018-03-08T02:56:42.376Z,8.00
2018-03-08T02:59:14.002Z,8.12
2018-03-08T03:01:54.930Z,7.98
2018-03-08T03:04:26.555Z,7.86
2018-03-08T03:06:57.421Z,7.80
2018-03-08T03:09:28.813Z,7.69
2018-03-08T03:12:00.126Z,7.89
2018-03-08T03:14:30.828Z,7.85
2018-03-08T03:17:02.305Z,7.63
2018-03-08T03:19:33.919Z,7.74
2018-03-08T03:22:04.573Z,7.89
2018-03-08T03:24:35.847Z,7.94
2018-03-08T03:27:06.620Z,7.86
2018-03-08T03:29:37.329Z,7.90
2018-03-08T03:32:08.644Z,7.71
2018-03-08T03:34:39.672Z,7.62
2018-03-08T03:37:10.625Z,7.80
2018-03-08T03:46:09.658Z,7.38
2018-03-08T03:48:40.568Z,7.63
2018-03-08T03:51:11.554Z,7.63
2018-03-08T03:53:42.359Z,7.64
2018-03-08T03:59:06.984Z,7.33
2018-03-08T04:01:38.669Z,7.42
2018-03-08T04:04:11.074Z,7.54
2018-03-08T04:06:41.534Z,7.49
2018-03-08T04:09:13.088Z,7.64
2018-03-08T04:11:44.156Z,7.43
2018-03-08T04:14:14.677Z,7.31
2018-03-08T04:16:45.757Z,7.28
2018-03-08T04:19:17.206Z,7.24
2018-03-08T04:21:47.874Z,7.42
2018-03-08T04:24:19.807Z,7.44
2018-03-08T04:26:50.409Z,7.44
2018-03-08T04:29:21.163Z,7.03
2018-03-08T04:31:52.867Z,7.14
2018-03-08T04:34:23.400Z,7.18
2018-03-08T04:36:55.458Z,6.88
2018-03-08T04:39:26.970Z,6.60
2018-03-08T04:41:58.493Z,6.62
2018-03-08T04:45:33.073Z,6.77
2018-03-08T04:48:04.215Z,6.80
2018-03-08T04:50:35.995Z,7.13
2018-03-08T04:53:06.540Z,7.18
2018-03-08T04:55:37.703Z,7.34
2018-03-08T04:58:08.990Z,7.04
2018-03-08T05:00:40.403Z,7.02
2018-03-08T05:03:11.533Z,7.17
2018-03-08T05:05:42.441Z,6.78
2018-03-08T05:08:13.050Z,6.81
2018-03-08T05:10:44.143Z,6.79
2018-03-08T05:13:15.003Z,6.53
2018-03-08T05:15:46.887Z,6.51
2018-03-08T05:18:18.162Z,6.78
2018-03-08T05:20:48.839Z,6.73
2018-03-08T05:23:19.871Z,6.64
2018-03-08T05:25:51.989Z,6.72
2018-03-08T05:28:23.294Z,6.62
2018-03-08T05:30:55.208Z,6.83
2018-03-08T05:33:26.359Z,6.58
2018-03-08T05:36:03.603Z,6.43
2018-03-08T05:38:34.519Z,6.44
2018-03-08T05:41:06.762Z,6.53
2018-03-08T05:43:39.328Z,6.80
2018-03-08T05:46:11.577Z,7.01
2018-03-08T05:48:42.804Z,6.68
2018-03-08T05:51:14.036Z,6.73
2018-03-08T05:53:45.610Z,6.91
2018-03-08T05:56:17.426Z,7.10
2018-03-08T05:58:48.830Z,7.02
2018-03-08T06:01:22.125Z,6.85
2018-03-08T06:03:53.772Z,6.58
2018-03-08T06:06:25.702Z,7.02
2018-03-08T06:08:57.283Z,6.71
2018-03-08T06:11:29.605Z,6.64
2018-03-08T06:14:02.400Z,6.95
2018-03-08T06:16:34.629Z,7.15
2018-03-08T06:21:52.762Z,7.11
2018-03-08T06:24:24.503Z,7.27
2018-03-08T06:26:57.532Z,7.12
2018-03-08T06:29:30.362Z,7.12
2018-03-08T06:32:13.366Z,7.25
2018-03-08T06:34:46.461Z,7.31
2018-03-08T06:37:19.661Z,7.22
2018-03-08T06:39:50.977Z,7.16
2018-03-08T06:42:25.732Z,6.92
2018-03-08T06:44:57.265Z,6.53
2018-03-08T06:47:31.358Z,6.66
2018-03-08T06:50:04.271Z,6.98
2018-03-08T06:52:36.079Z,6.69
2018-03-08T06:55:14.248Z,6.63
2018-03-08T06:57:45.478Z,6.63
2018-03-08T07:00:22.726Z,6.88
2018-03-08T07:02:59.951Z,6.92
2018-03-08T07:05:32.211Z,6.86
2018-03-08T07:08:03.887Z,6.95
2018-03-08T07:10:35.341Z,6.65
2018-03-08T07:13:20.985Z,6.93
2018-03-08T07:15:54.358Z,7.22
2018-03-08T07:18:28.948Z,7.16
2018-03-08T07:21:01.286Z,7.44
2018-03-08T07:23:34.568Z,7.77
2018-03-08T07:26:16.053Z,7.71
2018-03-08T07:28:47.910Z,7.76
2018-03-08T07:31:21.410Z,7.30
2018-03-08T07:33:54.415Z,7.54
2018-03-08T07:36:26.294Z,7.68
2018-03-08T07:38:58.095Z,7.74
2018-03-08T07:41:29.475Z,7.70
2018-03-08T07:44:08.891Z,7.12
2018-03-08T07:46:41.604Z,7.62
2018-03-08T07:49:15.733Z,8.06
2018-03-08T07:51:47.248Z,8.33
2018-03-08T07:54:19.449Z,7.59
2018-03-08T07:56:52.584Z,7.71
2018-03-08T07:59:24.133Z,8.27
2018-03-08T08:01:56.322Z,9.07
2018-03-08T08:04:38.816Z,8.39
2018-03-08T08:11:37.389Z,9.19
2018-03-08T08:16:59.120Z,9.86
2018-03-08T08:19:30.981Z,9.47
2018-03-08T08:22:02.910Z,9.98
2018-03-08T08:24:35.004Z,10.02
2018-03-08T08:27:06.684Z,10.01
2018-03-08T08:29:38.062Z,9.83
2018-03-08T08:32:12.258Z,9.83
2018-03-08T08:34:44.861Z,8.90
2018-03-08T08:37:24.331Z,8.88
2018-03-08T08:39:56.197Z,9.39
2018-03-08T08:42:28.894Z,9.71
2018-03-08T08:45:05.576Z,9.72
2018-03-08T08:47:38.898Z,9.33
2018-03-08T08:50:11.755Z,9.33
2018-03-08T08:52:44.181Z,9.16
2018-03-08T08:55:19.230Z,9.84
2018-03-08T08:57:55.646Z,9.42
2018-03-08T09:00:30.593Z,9.67
2018-03-08T09:03:02.640Z,9.97
2018-03-08T09:05:34.815Z,9.40
2018-03-08T09:08:07.218Z,9.18
2018-03-08T09:10:39.576Z,9.55
2018-03-08T09:13:11.407Z,9.49
2018-03-08T09:15:46.961Z,9.80
2018-03-08T09:18:22.442Z,9.27
2018-03-08T09:20:53.922Z,9.14
2018-03-08T09:23:26.109Z,9.53
2018-03-08T09:25:57.464Z,9.35
2018-03-08T09:28:29.256Z,10.16
2018-03-08T09:31:01.052Z,10.18
2018-03-08T09:33:32.748Z,10.33
2018-03-08T09:36:04.071Z,10.64
2018-03-08T09:38:35.924Z,10.66
2018-03-08T09:41:08.453Z,11.71
2018-03-08T09:43:40.311Z,10.62
2018-03-08T09:46:14.944Z,11.49
2018-03-08T09:48:46.697Z,11.46
2018-03-08T09:51:21.415Z,10.81
2018-03-08T09:53:53.955Z,9.85
2018-03-08T09:56:28.746Z,10.11
2018-03-08T09:59:00.040Z,9.86
2018-03-08T10:01:31.478Z,10.10
2018-03-08T10:04:02.730Z,9.74
2018-03-08T10:06:33.836Z,9.73
2018-03-08T10:09:06.517Z,9.88
2018-03-08T10:11:38.633Z,9.83
2018-03-08T10:14:11.030Z,10.04
2018-03-08T10:16:43.402Z,10.32
2018-03-08T10:19:15.180Z,11.03
2018-03-08T10:21:47.244Z,11.37
2018-03-08T10:24:22.493Z,11.24
2018-03-08T10:27:04.623Z,10.81
2018-03-08T10:29:37.714Z,10.98
2018-03-08T10:32:10.842Z,10.47
2018-03-08T10:34:42.110Z,10.00
2018-03-08T10:40:08.755Z,10.59
2018-03-08T10:45:21.769Z,10.20
2018-03-08T10:48:15.084Z,10.18
2018-03-08T10:50:48.267Z,10.07
2018-03-08T10:53:50.722Z,10.30
2018-03-08T10:56:25.433Z,10.18
2018-03-08T10:58:57.958Z,10.53
2018-03-08T11:01:35.356Z,10.53
2018-03-08T11:04:12.978Z,10.60
2018-03-08T11:06:44.256Z,10.89
2018-03-08T11:09:17.175Z,11.19
2018-03-08T11:11:49.607Z,10.86
2018-03-08T11:14:21.226Z,10.76
2018-03-08T11:16:56.998Z,10.87
2018-03-08T11:19:30.404Z,11.02
2018-03-08T11:22:02.069Z,10.74
2018-03-08T11:24:36.192Z,10.74
2018-03-08T11:27:07.526Z,10.87
2018-03-08T11:29:38.603Z,11.07
2018-03-08T11:32:10.460Z,11.15
2018-03-08T11:34:42.002Z,10.97
2018-03-08T11:37:14.052Z,11.11
2018-03-08T11:39:45.564Z,11.26
2018-03-08T11:42:17.934Z,10.99
2018-03-08T11:44:50.285Z,10.81
2018-03-08T11:47:24.672Z,10.66
2018-03-08T11:49:56.666Z,10.44
2018-03-08T11:52:35.240Z,10.55
2018-03-08T11:55:07.115Z,10.66
2018-03-08T11:57:44.108Z,10.85
2018-03-08T12:00:40.592Z,11.21
2018-03-08T12:03:12.948Z,11.32
2018-03-08T12:05:45.498Z,11.32
2018-03-08T12:08:16.476Z,11.47
2018-03-08T12:10:48.589Z,11.39
2018-03-08T12:13:34.925Z,10.88
2018-03-08T12:16:09.882Z,11.03
2018-03-08T12:18:41.236Z,11.10
2018-03-08T12:21:17.558Z,10.89
2018-03-08T12:23:49.157Z,10.88
2018-03-08T12:26:22.277Z,10.60
2018-03-08T12:28:56.805Z,10.40
2018-03-08T12:31:28.039Z,10.77
2018-03-08T12:34:00.728Z,10.68
2018-03-08T12:36:33.579Z,10.92
2018-03-08T12:39:05.294Z,10.77
2018-03-08T12:41:37.794Z,10.79
2018-03-08T12:44:11.539Z,10.58
2018-03-08T12:46:43.267Z,10.36
2018-03-08T12:49:15.180Z,10.63
2018-03-08T12:51:47.743Z,10.64
2018-03-08T12:54:19.359Z,10.87
2018-03-08T12:56:51.205Z,10.92
2018-03-08T12:59:22.599Z,10.99
2018-03-08T13:01:53.945Z,10.88
2018-03-08T13:04:25.003Z,11.15
2018-03-08T13:06:56.701Z,11.26
2018-03-08T13:09:31.198Z,11.33
2018-03-08T13:12:05.854Z,11.35
2018-03-08T13:14:38.989Z,11.50
2018-03-08T13:17:11.216Z,11.26
2018-03-08T13:19:42.403Z,11.44
2018-03-08T13:22:14.010Z,11.43
2018-03-08T13:24:45.993Z,11.10
2018-03-08T13:27:17.466Z,11.02
2018-03-08T13:29:50.036Z,11.19
2018-03-08T13:32:22.343Z,11.31
2018-03-08T13:34:55.831Z,11.16
2018-03-08T13:37:27.182Z,11.14
2018-03-08T13:39:58.271Z,11.28
2018-03-08T13:42:33.500Z,11.08
2018-03-08T13:45:09.421Z,11.11
2018-03-08T13:47:44.889Z,10.90
2018-03-08T13:50:16.744Z,10.76
2018-03-08T13:52:48.545Z,10.93
2018-03-08T13:55:19.622Z,10.79
2018-03-08T13:57:52.240Z,10.78
2018-03-08T14:00:23.563Z,10.75
2018-03-08T14:02:57.139Z,10.69
2018-03-08T14:05:40.622Z,10.53
2018-03-08T14:08:22.395Z,10.35
2018-03-08T14:10:55.743Z,10.37
2018-03-08T14:13:27.750Z,10.27
2018-03-08T14:15:59.334Z,10.26
2018-03-08T14:18:30.962Z,10.09
2018-03-08T14:21:02.935Z,10.02
2018-03-08T14:23:34.251Z,10.11
2018-03-08T14:26:05.464Z,10.26
2018-03-08T14:28:36.700Z,10.36
2018-03-08T14:31:08.946Z,10.14
2018-03-08T14:33:41.093Z,10.14
2018-03-08T14:36:13.158Z,10.28
2018-03-08T14:38:44.113Z,10.20
2018-03-08T14:41:18.320Z,10.16
2018-03-08T14:43:52.751Z,10.25
2018-03-08T14:46:24.996Z,10.38
2018-03-08T14:48:56.643Z,9.97
2018-03-08T14:51:29.034Z,10.12
2018-03-08T14:54:11.807Z,10.22
2018-03-08T14:56:43.573Z,9.92
2018-03-08T14:59:14.666Z,9.79
2018-03-08T15:01:45.904Z,10.04
2018-03-08T15:04:16.862Z,10.14
2018-03-08T15:06:48.374Z,10.24
2018-03-08T15:09:21.379Z,10.24
2018-03-08T15:11:53.823Z,10.47
2018-03-08T15:14:27.796Z,10.23
2018-03-08T15:17:02.480Z,10.22
2018-03-08T15:19:34.989Z,10.20
2018-03-08T15:22:07.574Z,10.45
2018-03-08T15:24:39.180Z,10.50
2018-03-08T15:27:10.680Z,10.13
2018-03-08T15:29:42.159Z,10.18
2018-03-08T15:32:14.616Z,10.06
2018-03-08T15:35:08.318Z,10.04
2018-03-08T15:37:40.141Z,9.94
2018-03-08T15:40:11.784Z,9.71
2018-03-08T15:42:43.974Z,9.62
2018-03-08T15:45:18.210Z,9.58
2018-03-08T15:47:49.951Z,9.68
2018-03-08T15:50:21.898Z,9.64
2018-03-08T15:52:57.142Z,9.47
2018-03-08T15:55:29.590Z,9.59
2018-03-08T15:58:01.505Z,9.59
2018-03-08T16:00:33.467Z,9.48
2018-03-08T16:03:05.738Z,9.65
2018-03-08T16:05:38.198Z,9.68
2018-03-08T16:08:13.256Z,9.55
2018-03-08T16:10:45.095Z,9.42
2018-03-08T16:13:16.675Z,9.23
2018-03-08T16:15:47.889Z,9.41
2018-03-08T16:18:23.239Z,9.35
2018-03-08T16:20:58.546Z,9.29
2018-03-08T16:23:30.053Z,9.37
2018-03-08T16:26:02.518Z,9.41
2018-03-08T16:28:34.096Z,9.29
2018-03-08T16:31:04.993Z,9.38
2018-03-08T16:33:36.994Z,9.33
2018-03-08T16:36:09.490Z,9.55
2018-03-08T16:38:40.766Z,9.33
2018-03-08T16:41:12.669Z,9.57
2018-03-08T16:44:08.332Z,9.59
2018-03-08T16:47:03.248Z,9.45
2018-03-08T16:49:35.641Z,9.66
2018-03-08T16:52:07.828Z,9.56
2018-03-08T16:54:41.599Z,9.49
2018-03-08T16:57:15.053Z,9.56
2018-03-08T16:59:46.669Z,9.38
2018-03-08T17:02:27.371Z,9.17
2018-03-08T17:05:00.192Z,9.31
2018-03-08T17:07:44.902Z,9.23
2018-03-08T17:10:18.055Z,9.23
2018-03-08T17:12:52.504Z,9.25
2018-03-08T17:15:28.020Z,9.34
2018-03-08T17:20:40.869Z,9.36
2018-03-08T17:23:12.175Z,9.12
2018-03-08T17:25:43.919Z,9.20
2018-03-08T17:28:15.064Z,8.98
2018-03-08T17:30:47.913Z,9.02
2018-03-08T17:33:19.018Z,8.89
2018-03-08T17:35:50.795Z,8.89
2018-03-08T17:38:22.699Z,8.86
2018-03-08T17:41:00.370Z,8.86
2018-03-08T17:43:32.669Z,8.91
2018-03-08T17:46:05.752Z,8.78
2018-03-08T17:48:37.255Z,8.79
2018-03-08T17:51:08.156Z,8.67
2018-03-08T17:53:40.391Z,8.68
2018-03-08T17:56:11.344Z,8.54
2018-03-08T17:58:42.352Z,8.47
2018-03-08T18:01:14.721Z,8.33
2018-03-08T18:03:45.698Z,8.53
2018-03-08T18:06:18.217Z,8.52
2018-03-08T18:08:49.209Z,8.35
2018-03-08T18:11:21.097Z,8.31
2018-03-08T18:16:37.071Z,8.26
2018-03-08T18:19:12.054Z,8.39
2018-03-08T18:21:45.720Z,8.44
2018-03-08T18:24:19.288Z,8.57
2018-03-08T18:26:51.845Z,8.04
2018-03-08T18:29:27.176Z,8.30
2018-03-08T18:31:59.512Z,8.20
2018-03-08T18:34:31.587Z,8.22
2018-03-08T18:37:03.305Z,8.32
2018-03-08T18:39:35.631Z,8.02
2018-03-08T18:42:09.422Z,8.19
2018-03-08T18:44:42.891Z,8.35
2018-03-08T18:47:14.627Z,8.31
2018-03-08T18:49:48.366Z,8.37
2018-03-08T18:52:19.897Z,8.41
2018-03-08T18:54:51.974Z,8.51
2018-03-08T18:57:30.444Z,8.45
2018-03-08T19:02:53.450Z,8.23
2018-03-08T19:05:28.262Z,8.33
2018-03-08T19:07:59.550Z,8.46
2018-03-08T19:10:31.690Z,8.51
2018-03-08T19:13:03.302Z,8.66
2018-03-08T19:15:35.240Z,8.72
2018-03-08T19:18:08.281Z,7.84
2018-03-08T19:20:43.158Z,8.61
2018-03-08T19:23:21.238Z,8.62
2018-03-08T19:26:02.662Z,8.84
2018-03-08T19:28:35.164Z,8.80
2018-03-08T19:31:07.310Z,8.73
2018-03-08T19:33:38.382Z,8.81
2018-03-08T19:36:11.539Z,8.81
2018-03-08T19:38:45.222Z,8.83
2018-03-08T19:41:23.296Z,8.91
2018-03-08T19:43:55.748Z,8.90
2018-03-08T19:46:33.026Z,8.86
2018-03-08T19:49:24.845Z,8.73
2018-03-08T19:51:58.236Z,8.70
2018-03-08T19:54:29.283Z,8.69
2018-03-08T19:57:01.046Z,8.79
2018-03-08T19:59:32.072Z,8.87
2018-03-08T20:02:04.182Z,8.54
2018-03-08T20:04:45.933Z,8.75
2018-03-08T20:07:19.789Z,8.74
2018-03-08T20:09:51.459Z,8.79
2018-03-08T20:12:22.892Z,8.85
2018-03-08T20:14:54.774Z,8.85
2018-03-08T20:17:32.475Z,8.76
2018-03-08T20:20:03.878Z,8.85
2018-03-08T20:22:34.962Z,8.85
2018-03-08T20:25:06.768Z,8.81
2018-03-08T20:27:38.313Z,8.92
2018-03-08T20:30:09.908Z,8.77
2018-03-08T20:32:43.740Z,8.85
2018-03-08T20:35:14.722Z,8.73
2018-03-08T20:37:46.042Z,8.53
2018-03-08T20:40:17.405Z,8.49
2018-03-08T20:42:48.793Z,8.48
2018-03-08T20:45:21.617Z,8.36
2018-03-08T20:47:53.748Z,8.60
2018-03-08T20:50:24.976Z,8.52
2018-03-08T20:52:57.843Z,8.43
2018-03-08T20:55:28.843Z,8.62
2018-03-08T20:57:59.982Z,8.49
2018-03-08T21:00:35.048Z,8.52
2018-03-08T21:03:06.355Z,8.32
2018-03-08T21:05:39.975Z,8.37
2018-03-08T21:08:11.063Z,8.49
2018-03-08T21:10:42.030Z,8.29
2018-03-08T21:13:12.868Z,8.29
2018-03-08T21:15:43.928Z,8.07
2018-03-08T21:18:16.227Z,8.18
2018-03-08T21:20:47.259Z,8.08
2018-03-08T21:23:18.786Z,8.18
2018-03-08T21:25:50.431Z,8.17
2018-03-08T21:28:22.849Z,8.22
2018-03-08T21:30:54.542Z,8.11
2018-03-08T21:33:26.323Z,7.99
2018-03-08T21:38:42.844Z,8.06
2018-03-08T21:41:15.577Z,8.11
2018-03-08T21:43:46.984Z,8.03
2018-03-08T21:46:18.436Z,8.06
2018-03-08T21:48:49.778Z,8.26
2018-03-08T21:51:20.765Z,8.10
2018-03-08T21:53:51.871Z,8.21
2018-03-08T21:56:25.167Z,8.11
2018-03-08T21:58:56.506Z,8.15
2018-03-08T22:01:28.034Z,8.16
2018-03-08T22:04:00.468Z,8.14
2018-03-08T22:06:33.031Z,8.09
2018-03-08T22:09:05.306Z,8.17
2018-03-08T22:11:36.904Z,8.06
2018-03-08T22:14:08.980Z,8.02
2018-03-08T22:16:41.010Z,8.07
2018-03-08T22:19:12.982Z,8.07
2018-03-08T22:21:45.403Z,7.81
2018-03-08T22:24:16.789Z,7.80
2018-03-08T22:26:50.918Z,7.86
2018-03-08T22:29:24.084Z,7.86
2018-03-08T22:31:56.773Z,7.82
2018-03-08T22:34:31.502Z,7.83
2018-03-08T22:37:03.348Z,7.76
2018-03-08T22:39:37.288Z,7.84
2018-03-08T22:42:09.335Z,7.85
2018-03-08T22:44:40.873Z,7.93
2018-03-08T22:47:12.844Z,7.79
2018-03-08T22:49:44.157Z,7.73
2018-03-08T22:52:15.339Z,7.73
2018-03-08T22:54:47.010Z,7.74
2018-03-08T22:57:18.324Z,7.65
2018-03-08T22:59:49.307Z,7.66
2018-03-08T23:02:24.968Z,7.74
2018-03-08T23:04:56.628Z,7.74
2018-03-08T23:07:27.708Z,7.79
2018-03-08T23:09:58.705Z,7.70
2018-03-08T23:12:30.597Z,7.70
2018-03-08T23:15:03.873Z,7.78
2018-03-08T23:17:35.639Z,7.67
2018-03-08T23:20:06.978Z,7.65
2018-03-08T23:22:38.632Z,7.71
2018-03-08T23:25:09.929Z,7.65
2018-03-08T23:27:42.442Z,7.72
2018-03-08T23:30:16.126Z,7.73
2018-03-08T23:32:47.144Z,7.72
2018-03-08T23:35:18.627Z,7.67
2018-03-08T23:40:29.196Z,7.71
2018-03-08T23:43:00.667Z,7.72
2018-03-08T23:45:33.875Z,7.72
2018-03-08T23:48:06.265Z,7.70
2018-03-08T23:50:39.753Z,7.75
2018-03-08T23:53:10.880Z,7.63
2018-03-08T23:55:43.254Z,7.53
2018-03-08T23:58:15.868Z,7.42
